Time;durP1;ratioP1;P1;durP2;ratioP2;P2;SDS_P1;SDS_P2;PMS_P1;PMS_P2;Temp;Humidity;BMP_temperature;BMP_pressure;BME280_temperature;BME280_humidity;BME280_pressure;Samples;Min_cycle;Max_cycle;Signal;HPM_P1;HPM_P2
2021/11/18 00:00:23;;;;;;;65.97;29.60;;;6.30;99.90;;;;;;5083798;28;20198;-58
2021/11/18 00:02:51;;;;;;;81.93;29.92;;;6.40;99.90;;;;;;5085174;28;20012;-59
2021/11/18 00:05:19;;;;;;;68.55;32.05;;;6.40;99.90;;;;;;5090987;28;20052;-57
2021/11/18 00:07:48;;;;;;;79.97;30.63;;;6.40;99.90;;;;;;5070721;28;20041;-57
2021/11/18 00:10:17;;;;;;;73.97;28.45;;;6.40;99.90;;;;;;5090954;28;20028;-57
2021/11/18 00:12:44;;;;;;;93.90;32.58;;;6.30;99.90;;;;;;5086426;28;20133;-54
2021/11/18 00:15:13;;;;;;;89.90;30.92;;;6.30;99.90;;;;;;5069193;28;20152;-57
2021/11/18 00:17:38;;;;;;;75.35;27.67;;;6.30;99.90;;;;;;5087658;28;20029;-56
2021/11/18 00:20:08;;;;;;;72.70;28.45;;;6.30;99.90;;;;;;5085981;28;20031;-57
2021/11/18 00:22:33;;;;;;;76.22;26.92;;;6.30;99.90;;;;;;5089618;28;20032;-56
2021/11/18 00:24:59;;;;;;;67.57;28.10;;;6.30;99.90;;;;;;5080152;28;20039;-57
2021/11/18 00:27:27;;;;;;;82.55;31.50;;;6.20;99.90;;;;;;5090768;28;20020;-57
2021/11/18 00:29:53;;;;;;;74.88;28.98;;;6.20;99.90;;;;;;5072570;28;20055;-57
2021/11/18 00:32:19;;;;;;;66.93;28.15;;;6.20;99.90;;;;;;5089663;28;20032;-52
2021/11/18 00:34:44;;;;;;;78.00;29.17;;;6.20;99.90;;;;;;5083637;28;20086;-54
2021/11/18 00:37:10;;;;;;;69.35;28.35;;;6.20;99.90;;;;;;5091228;28;20045;-57
2021/11/18 00:39:36;;;;;;;66.80;26.50;;;6.20;99.90;;;;;;5089530;28;20095;-57
2021/11/18 00:42:01;;;;;;;71.45;26.35;;;6.20;99.90;;;;;;5084288;28;20038;-58
2021/11/18 00:44:27;;;;;;;71.72;24.52;;;6.20;99.90;;;;;;5087782;28;20020;-58
2021/11/18 00:46:54;;;;;;;61.30;23.83;;;6.20;99.90;;;;;;5089028;28;20032;-56
2021/11/18 00:49:21;;;;;;;62.75;24.02;;;6.30;99.90;;;;;;5088725;28;20020;-58
2021/11/18 00:51:47;;;;;;;63.72;24.55;;;6.30;99.90;;;;;;5088157;28;20020;-57
2021/11/18 00:54:13;;;;;;;59.53;23.33;;;6.20;99.90;;;;;;5081940;28;20036;-57
2021/11/18 00:56:39;;;;;;;57.45;23.33;;;6.20;99.90;;;;;;5083284;28;20064;-54
2021/11/18 00:59:05;;;;;;;61.45;22.92;;;6.20;99.90;;;;;;5083238;28;20073;-57
2021/11/18 01:01:35;;;;;;;43.95;19.38;;;6.20;99.90;;;;;;5084586;28;20435;-57
2021/11/18 01:04:01;;;;;;;61.00;23.33;;;6.20;99.90;;;;;;5083717;28;20031;-58
2021/11/18 01:06:27;;;;;;;55.92;20.58;;;6.10;99.90;;;;;;5084881;28;20028;-57
2021/11/18 01:08:52;;;;;;;55.33;22.30;;;6.20;99.90;;;;;;5072283;28;20101;-59
2021/11/18 01:11:26;;;;;;;47.50;19.10;;;6.10;99.90;;;;;;5077465;28;20051;-56
2021/11/18 01:13:52;;;;;;;53.35;19.30;;;6.10;99.90;;;;;;5075343;28;20131;-57
2021/11/18 01:16:21;;;;;;;57.10;19.83;;;6.20;99.90;;;;;;5076527;28;20490;-59
2021/11/18 01:18:46;;;;;;;62.80;18.60;;;6.20;99.90;;;;;;5089620;28;20024;-58
2021/11/18 01:21:12;;;;;;;60.95;20.17;;;6.20;99.90;;;;;;5078455;28;20107;-58
2021/11/18 01:23:39;;;;;;;57.33;18.17;;;6.20;99.90;;;;;;5087596;28;20027;-57
2021/11/18 01:26:10;;;;;;;51.92;18.50;;;6.20;99.90;;;;;;5070022;28;20020;-56
2021/11/18 01:28:36;;;;;;;48.80;18.10;;;6.20;99.90;;;;;;5086099;28;20370;-58
2021/11/18 01:31:03;;;;;;;47.58;17.75;;;6.20;99.90;;;;;;5089048;28;20036;-54
2021/11/18 01:33:28;;;;;;;43.70;17.80;;;6.10;99.90;;;;;;5090304;28;20031;-56
2021/11/18 01:35:56;;;;;;;36.88;17.52;;;6.10;99.90;;;;;;5082960;28;20425;-58
2021/11/18 01:38:22;;;;;;;43.60;16.55;;;6.00;99.90;;;;;;5081872;28;20539;-56
2021/11/18 01:40:55;;;;;;;48.22;16.17;;;6.00;99.90;;;;;;5086729;28;20028;-55
2021/11/18 01:43:23;;;;;;;38.47;15.48;;;5.90;99.90;;;;;;5076841;28;20035;-58
2021/11/18 01:45:50;;;;;;;37.17;15.40;;;5.90;99.90;;;;;;5085707;28;20024;-56
2021/11/18 01:48:16;;;;;;;41.28;16.42;;;5.90;99.90;;;;;;5090189;28;20031;-57
2021/11/18 01:50:46;;;;;;;39.22;16.10;;;5.90;99.90;;;;;;5089313;28;20024;-56
2021/11/18 01:53:14;;;;;;;39.00;15.73;;;5.80;99.90;;;;;;5089455;28;20031;-54
2021/11/18 01:55:42;;;;;;;37.97;14.75;;;5.70;99.90;;;;;;5088678;28;20041;-56
2021/11/18 01:58:08;;;;;;;35.78;14.68;;;5.70;99.90;;;;;;5089469;28;20031;-55
2021/11/18 02:00:48;;;;;;;35.75;14.00;;;5.60;99.90;;;;;;5062111;28;20584;-58
2021/11/18 02:03:14;;;;;;;34.42;14.55;;;5.60;99.90;;;;;;5088108;28;20035;-57
2021/11/18 02:06:19;;;;;;;42.78;15.88;;;5.50;99.90;;;;;;5088444;28;20032;-58
2021/11/18 02:08:45;;;;;;;35.70;15.18;;;5.50;99.90;;;;;;5050540;28;20043;-56
2021/11/18 02:11:28;;;;;;;38.58;14.68;;;5.50;99.90;;;;;;5075937;28;20037;-56
2021/11/18 02:13:55;;;;;;;48.92;16.95;;;5.50;99.90;;;;;;5084097;28;20059;-59
2021/11/18 02:16:22;;;;;;;30.83;14.93;;;5.50;99.90;;;;;;5088082;28;20032;-55
2021/11/18 02:18:48;;;;;;;44.55;16.92;;;5.40;99.90;;;;;;5083274;28;20032;-54
2021/11/18 02:21:15;;;;;;;40.83;15.88;;;5.40;99.90;;;;;;5084839;28;20066;-54
2021/11/18 02:23:44;;;;;;;42.28;15.65;;;5.30;99.90;;;;;;5058374;28;20028;-52
2021/11/18 02:26:11;;;;;;;38.80;14.30;;;5.30;99.90;;;;;;5087061;28;20031;-56
2021/11/18 02:28:40;;;;;;;41.22;15.23;;;5.20;99.90;;;;;;5088543;28;20116;-58
2021/11/18 02:31:24;;;;;;;41.47;16.25;;;5.20;99.90;;;;;;5083002;28;20030;-55
2021/11/18 02:33:51;;;;;;;37.38;15.35;;;5.10;99.90;;;;;;5086805;28;20447;-58
2021/11/18 02:36:17;;;;;;;48.15;16.23;;;5.10;99.90;;;;;;5088089;28;20154;-57
2021/11/18 02:38:43;;;;;;;46.40;16.77;;;5.10;99.90;;;;;;5081336;28;20074;-58
2021/11/18 02:41:13;;;;;;;33.30;15.93;;;5.00;99.90;;;;;;5074189;28;20496;-57
2021/11/18 02:43:39;;;;;;;37.80;14.80;;;5.00;99.90;;;;;;5080137;28;20023;-55
2021/11/18 02:46:05;;;;;;;40.75;15.23;;;4.90;99.90;;;;;;5087511;28;20086;-56
2021/11/18 02:48:32;;;;;;;37.72;15.35;;;4.90;99.90;;;;;;5091878;28;20096;-56
2021/11/18 02:51:00;;;;;;;32.22;15.55;;;4.90;99.90;;;;;;5095046;28;20035;-56
2021/11/18 02:53:27;;;;;;;36.03;15.18;;;4.80;99.90;;;;;;5095275;28;20554;-59
2021/11/18 02:55:53;;;;;;;34.80;16.27;;;4.80;99.90;;;;;;5086365;28;20112;-55
2021/11/18 02:58:21;;;;;;;39.78;16.33;;;4.90;99.90;;;;;;5092604;28;20031;-57
2021/11/18 03:00:52;;;;;;;47.33;17.05;;;4.90;99.90;;;;;;5093122;28;20024;-55
2021/11/18 03:03:18;;;;;;;36.10;17.55;;;4.90;99.90;;;;;;5095243;28;20035;-57
2021/11/18 03:05:45;;;;;;;41.95;18.25;;;5.00;99.90;;;;;;5089145;28;20020;-58
2021/11/18 03:08:11;;;;;;;43.05;16.23;;;5.00;99.90;;;;;;5092989;28;20501;-59
2021/11/18 03:10:37;;;;;;;38.92;15.65;;;5.10;99.90;;;;;;5086819;28;20039;-57
2021/11/18 03:13:04;;;;;;;34.67;16.88;;;5.20;99.90;;;;;;5094913;28;20024;-55
2021/11/18 03:15:30;;;;;;;34.35;16.50;;;5.20;99.90;;;;;;5095455;28;20032;-57
2021/11/18 03:17:56;;;;;;;35.30;16.80;;;5.20;99.90;;;;;;5094402;28;20020;-56
2021/11/18 03:20:23;;;;;;;40.40;15.85;;;5.30;99.90;;;;;;5094282;28;21964;-57
2021/11/18 03:22:50;;;;;;;35.17;15.70;;;5.40;99.90;;;;;;5094183;28;20036;-58
2021/11/18 03:25:18;;;;;;;38.33;16.30;;;5.40;99.90;;;;;;5090433;28;20020;-56
2021/11/18 03:27:44;;;;;;;42.08;14.80;;;5.50;99.90;;;;;;5089855;28;20032;-54
2021/11/18 03:30:14;;;;;;;40.15;16.10;;;5.50;99.90;;;;;;5095756;28;20039;-54
2021/11/18 03:32:40;;;;;;;38.65;15.05;;;5.60;99.90;;;;;;5093678;28;20556;-57
2021/11/18 03:35:06;;;;;;;41.53;14.98;;;5.60;99.90;;;;;;5075122;28;20115;-56
2021/11/18 03:37:32;;;;;;;39.25;14.82;;;5.60;99.90;;;;;;5089269;28;20020;-57
2021/11/18 03:39:57;;;;;;;35.47;13.63;;;5.60;99.90;;;;;;5095671;28;20046;-55
2021/11/18 03:42:23;;;;;;;40.17;15.18;;;5.60;99.90;;;;;;5093411;28;20492;-53
2021/11/18 03:44:49;;;;;;;43.30;16.85;;;5.60;99.90;;;;;;5095597;28;20404;-57
2021/11/18 03:47:15;;;;;;;35.45;16.70;;;5.60;99.90;;;;;;5092800;28;20481;-57
2021/11/18 03:49:42;;;;;;;47.78;15.85;;;5.70;99.90;;;;;;5092583;28;20055;-57
2021/11/18 03:52:11;;;;;;;35.25;15.60;;;5.70;99.90;;;;;;5085603;28;20039;-57
2021/11/18 03:54:39;;;;;;;34.90;16.70;;;5.60;99.90;;;;;;5089253;28;20023;-57
2021/11/18 03:57:05;;;;;;;39.10;17.17;;;5.60;99.90;;;;;;5084486;28;20051;-58
2021/11/18 03:59:36;;;;;;;43.88;16.55;;;5.60;99.90;;;;;;5094174;28;20036;-56
2021/11/18 04:02:02;;;;;;;36.17;17.13;;;5.60;99.90;;;;;;5092504;28;20028;-55
2021/11/18 04:04:39;;;;;;;38.20;15.75;;;5.60;99.90;;;;;;5092190;28;20059;-55
2021/11/18 04:07:05;;;;;;;37.05;15.52;;;5.60;99.90;;;;;;5093003;28;20028;-55
2021/11/18 04:09:32;;;;;;;33.28;16.00;;;5.50;99.90;;;;;;5091601;28;20035;-56
2021/11/18 04:11:59;;;;;;;47.03;16.83;;;5.40;99.90;;;;;;5092424;28;20034;-57
2021/11/18 04:14:27;;;;;;;36.78;15.77;;;5.30;99.90;;;;;;5090736;28;20720;-58
2021/11/18 04:16:53;;;;;;;34.22;14.75;;;5.20;99.90;;;;;;5089509;28;20103;-57
2021/11/18 04:19:19;;;;;;;37.33;17.02;;;5.10;99.90;;;;;;5091735;28;20119;-58
2021/11/18 04:21:46;;;;;;;34.95;15.77;;;5.00;99.90;;;;;;5089000;28;20111;-56
2021/11/18 04:24:18;;;;;;;36.55;15.63;;;4.90;99.90;;;;;;5090564;28;20457;-56
2021/11/18 04:26:45;;;;;;;36.45;16.40;;;4.80;99.90;;;;;;5084821;28;20056;-57
2021/11/18 04:29:12;;;;;;;42.75;16.45;;;4.80;99.90;;;;;;5091200;28;20528;-55
2021/11/18 04:31:38;;;;;;;36.95;16.90;;;4.70;99.90;;;;;;5089238;28;20032;-57
2021/11/18 04:34:06;;;;;;;42.20;16.92;;;4.60;99.90;;;;;;5085940;28;20048;-55
2021/11/18 04:36:33;;;;;;;40.28;18.15;;;4.60;99.90;;;;;;5090150;28;20393;-53
2021/11/18 04:38:59;;;;;;;40.47;16.85;;;4.50;99.90;;;;;;5089050;28;20531;-55
2021/11/18 04:41:27;;;;;;;38.50;16.02;;;4.50;99.90;;;;;;5091054;28;20039;-56
2021/11/18 04:43:53;;;;;;;37.72;15.73;;;4.40;99.90;;;;;;5090884;28;20035;-59
2021/11/18 04:46:20;;;;;;;37.70;16.38;;;4.40;99.90;;;;;;5091554;28;20371;-58
2021/11/18 04:48:47;;;;;;;39.67;16.45;;;4.30;99.90;;;;;;5089420;28;20039;-57
2021/11/18 04:51:16;;;;;;;42.05;15.95;;;4.30;99.90;;;;;;5087193;28;20501;-54
2021/11/18 04:53:42;;;;;;;41.45;16.00;;;4.30;99.90;;;;;;5090630;28;20027;-56
2021/11/18 04:56:08;;;;;;;44.67;14.30;;;4.30;99.90;;;;;;5091376;28;20027;-56
2021/11/18 04:58:34;;;;;;;37.50;14.68;;;4.30;99.90;;;;;;5091468;28;20036;-57
2021/11/18 05:01:00;;;;;;;39.25;14.40;;;4.20;99.90;;;;;;5090845;28;20059;-59
2021/11/18 05:03:27;;;;;;;29.98;14.57;;;4.20;99.90;;;;;;5091165;28;20059;-58
2021/11/18 05:05:53;;;;;;;36.22;15.85;;;4.20;99.90;;;;;;5091240;28;20473;-56
2021/11/18 05:08:20;;;;;;;41.72;15.68;;;4.20;99.90;;;;;;5090689;28;20085;-59
2021/11/18 05:10:48;;;;;;;33.65;13.05;;;4.20;99.90;;;;;;5078198;28;20046;-56
2021/11/18 05:13:15;;;;;;;39.72;15.25;;;4.20;99.90;;;;;;5087918;28;20420;-55
2021/11/18 05:15:45;;;;;;;32.75;14.02;;;4.20;99.90;;;;;;5091224;28;20504;-57
2021/11/18 05:18:11;;;;;;;28.27;13.85;;;4.20;99.90;;;;;;5091019;28;20035;-56
2021/11/18 05:20:37;;;;;;;30.02;13.85;;;4.30;99.90;;;;;;5091100;28;20106;-57
2021/11/18 05:23:04;;;;;;;36.83;13.82;;;4.30;99.90;;;;;;5091024;28;20034;-58
2021/11/18 05:25:31;;;;;;;36.38;13.75;;;4.30;99.90;;;;;;5090519;28;20073;-55
2021/11/18 05:27:58;;;;;;;35.92;12.30;;;4.40;99.90;;;;;;5089459;28;20035;-56
2021/11/18 05:30:27;;;;;;;35.72;13.63;;;4.50;99.90;;;;;;5080951;28;20424;-56
2021/11/18 05:32:55;;;;;;;37.72;12.88;;;4.50;99.90;;;;;;5090775;28;20123;-53
2021/11/18 05:35:22;;;;;;;38.10;13.48;;;4.60;99.90;;;;;;5087664;28;20027;-59
2021/11/18 05:37:48;;;;;;;37.58;13.00;;;4.60;99.90;;;;;;5090146;28;20670;-56
2021/11/18 05:40:15;;;;;;;43.85;13.25;;;4.70;99.90;;;;;;5090058;28;20064;-58
2021/11/18 05:42:41;;;;;;;28.67;13.15;;;4.70;99.90;;;;;;5089893;28;20116;-58
2021/11/18 05:45:12;;;;;;;31.45;12.15;;;4.60;99.90;;;;;;5090321;28;20444;-57
2021/11/18 05:47:37;;;;;;;33.65;11.65;;;4.60;99.90;;;;;;5088093;28;20063;-56
2021/11/18 05:50:04;;;;;;;33.92;12.05;;;4.50;99.90;;;;;;5076851;28;20024;-56
2021/11/18 05:52:30;;;;;;;35.53;13.18;;;4.50;99.90;;;;;;5086226;28;20047;-55
2021/11/18 05:54:56;;;;;;;35.47;12.95;;;4.50;99.90;;;;;;5090160;28;20028;-57
2021/11/18 05:57:22;;;;;;;31.02;13.23;;;4.40;99.90;;;;;;5090097;28;20110;-58
2021/11/18 05:59:49;;;;;;;48.67;20.23;;;4.40;99.90;;;;;;5089749;28;20103;-54
2021/11/18 06:02:15;;;;;;;42.00;18.83;;;4.40;99.90;;;;;;5089310;28;20032;-56
2021/11/18 06:04:41;;;;;;;41.10;17.98;;;4.40;99.90;;;;;;5088534;28;20145;-59
2021/11/18 06:07:07;;;;;;;55.45;20.23;;;4.40;99.90;;;;;;5073328;28;20432;-57
2021/11/18 06:09:32;;;;;;;46.45;21.05;;;4.40;99.90;;;;;;5082489;28;20097;-56
2021/11/18 06:11:58;;;;;;;51.63;20.00;;;4.40;99.90;;;;;;5089936;28;20027;-57
2021/11/18 06:14:24;;;;;;;47.78;19.88;;;4.40;99.90;;;;;;5089491;28;20036;-58
2021/11/18 06:16:49;;;;;;;116.50;54.85;;;4.40;99.90;;;;;;5085810;28;20077;-57
2021/11/18 06:19:15;;;;;;;128.55;56.13;;;4.50;99.90;;;;;;5079220;28;20052;-57
2021/11/18 06:21:45;;;;;;;84.03;39.33;;;4.50;99.90;;;;;;5078153;28;20027;-57
2021/11/18 06:24:12;;;;;;;62.70;28.33;;;4.60;99.90;;;;;;5085908;28;20082;-59
2021/11/18 06:26:39;;;;;;;53.70;24.17;;;4.60;99.90;;;;;;5081301;28;20028;-57
2021/11/18 06:29:05;;;;;;;42.50;22.05;;;4.60;99.90;;;;;;5088027;28;20511;-56
2021/11/18 06:31:31;;;;;;;39.13;18.50;;;4.70;99.90;;;;;;5090032;28;20131;-54
2021/11/18 06:33:57;;;;;;;31.52;17.02;;;4.70;99.90;;;;;;5089278;28;20035;-57
2021/11/18 06:36:24;;;;;;;33.65;14.00;;;4.70;99.90;;;;;;5086389;28;20027;-56
2021/11/18 06:38:52;;;;;;;27.63;14.40;;;4.70;99.90;;;;;;5079752;28;20047;-56
2021/11/18 06:41:19;;;;;;;40.55;14.00;;;4.70;99.90;;;;;;5089424;28;20056;-59
2021/11/18 06:43:45;;;;;;;32.50;14.13;;;4.70;99.90;;;;;;5084892;28;20043;-57
2021/11/18 06:46:11;;;;;;;34.25;13.05;;;4.80;99.90;;;;;;5086924;28;20422;-58
2021/11/18 06:48:37;;;;;;;23.77;13.75;;;4.80;99.90;;;;;;5089291;28;20040;-58
2021/11/18 06:51:10;;;;;;;34.63;15.80;;;4.80;99.90;;;;;;5081187;28;20025;-57
2021/11/18 06:53:37;;;;;;;41.35;16.35;;;4.80;99.90;;;;;;5083949;28;20043;-57
2021/11/18 06:56:04;;;;;;;35.55;16.83;;;4.80;99.90;;;;;;5075919;28;20482;-58
2021/11/18 06:58:29;;;;;;;30.83;14.23;;;4.80;99.90;;;;;;5089704;28;20043;-58
2021/11/18 07:00:56;;;;;;;26.52;13.52;;;4.80;99.90;;;;;;5088707;28;20024;-56
2021/11/18 07:03:22;;;;;;;31.33;15.93;;;4.80;99.90;;;;;;5088860;28;20081;-54
2021/11/18 07:05:48;;;;;;;31.83;15.25;;;4.80;99.90;;;;;;5088786;28;20495;-58
2021/11/18 07:08:14;;;;;;;29.85;12.90;;;4.90;99.90;;;;;;5088123;28;20036;-58
2021/11/18 07:10:42;;;;;;;28.08;12.65;;;4.80;99.90;;;;;;5082057;28;20028;-60
2021/11/18 07:13:16;;;;;;;38.67;12.40;;;4.90;99.90;;;;;;5085951;28;20040;-57
2021/11/18 07:15:42;;;;;;;37.63;12.77;;;4.90;99.90;;;;;;5083205;28;20404;-57
2021/11/18 07:18:08;;;;;;;22.35;10.57;;;4.90;99.90;;;;;;5088150;28;20139;-55
2021/11/18 07:20:34;;;;;;;29.80;11.13;;;5.00;99.90;;;;;;5084139;28;20071;-56
2021/11/18 07:23:00;;;;;;;32.53;10.90;;;5.00;99.90;;;;;;5088233;28;20338;-59
2021/11/18 07:25:28;;;;;;;28.15;10.50;;;5.00;99.90;;;;;;5074962;28;20051;-57
2021/11/18 07:27:54;;;;;;;32.05;13.50;;;5.00;99.90;;;;;;5088434;28;20020;-58
2021/11/18 07:30:21;;;;;;;42.67;16.52;;;5.10;99.90;;;;;;5081178;28;20044;-58
2021/11/18 07:32:46;;;;;;;27.50;13.82;;;5.10;99.90;;;;;;5085841;28;20544;-54
2021/11/18 07:35:13;;;;;;;29.08;12.65;;;5.20;99.90;;;;;;5089654;28;20028;-58
2021/11/18 07:37:39;;;;;;;35.28;14.38;;;5.20;99.90;;;;;;5088388;28;20078;-57
2021/11/18 07:40:07;;;;;;;30.00;13.38;;;5.30;99.90;;;;;;5066630;28;20070;-58
2021/11/18 07:42:33;;;;;;;29.88;10.40;;;5.30;99.90;;;;;;5073410;28;20036;-58
2021/11/18 07:45:00;;;;;;;21.83;9.02;;;5.40;99.90;;;;;;5088988;28;20111;-58
2021/11/18 07:47:26;;;;;;;23.73;9.68;;;5.40;99.90;;;;;;5071796;28;20040;-57
2021/11/18 07:49:53;;;;;;;26.20;10.90;;;5.40;99.90;;;;;;5071985;28;20035;-58
2021/11/18 07:52:19;;;;;;;22.95;11.73;;;5.50;99.90;;;;;;5071837;28;20025;-56
2021/11/18 07:54:45;;;;;;;30.40;12.35;;;5.50;99.90;;;;;;5073178;28;20520;-56
2021/11/18 07:57:10;;;;;;;29.17;11.27;;;5.60;99.90;;;;;;5072563;28;20058;-58
2021/11/18 07:59:37;;;;;;;33.70;15.57;;;5.60;99.90;;;;;;5071602;28;20081;-55
2021/11/18 08:02:04;;;;;;;37.40;14.27;;;5.70;99.90;;;;;;5072089;28;20028;-57
2021/11/18 08:04:30;;;;;;;32.47;15.70;;;5.70;99.90;;;;;;5071450;28;20016;-58
2021/11/18 08:06:56;;;;;;;22.92;10.63;;;5.80;99.90;;;;;;5071585;28;20142;-57
2021/11/18 08:09:23;;;;;;;25.38;9.75;;;5.80;99.90;;;;;;5070528;28;20103;-57
2021/11/18 08:11:51;;;;;;;32.92;11.10;;;5.90;99.90;;;;;;5052147;28;20524;-55
2021/11/18 08:14:17;;;;;;;22.10;10.18;;;5.90;99.90;;;;;;5038142;28;20033;-55
2021/11/18 08:16:44;;;;;;;19.88;9.13;;;6.00;99.90;;;;;;5047830;28;20030;-58
2021/11/18 08:19:10;;;;;;;24.92;8.75;;;6.10;99.90;;;;;;5047029;28;20075;-58
2021/11/18 08:21:38;;;;;;;22.67;9.70;;;6.20;99.90;;;;;;5050263;28;20508;-55
2021/11/18 08:24:06;;;;;;;20.65;8.50;;;6.20;99.90;;;;;;5050893;28;20208;-59
2021/11/18 08:26:32;;;;;;;22.85;8.98;;;6.30;99.90;;;;;;5051293;28;20025;-55
2021/11/18 08:28:58;;;;;;;19.15;7.15;;;6.40;99.90;;;;;;5049134;28;20075;-55
2021/11/18 08:31:24;;;;;;;19.35;7.78;;;6.40;99.90;;;;;;5045355;28;20254;-55
2021/11/18 08:33:52;;;;;;;21.75;8.68;;;6.50;99.90;;;;;;5050627;28;20029;-57
2021/11/18 08:36:17;;;;;;;20.67;7.78;;;6.50;99.90;;;;;;5051375;28;20108;-58
2021/11/18 08:38:43;;;;;;;17.52;7.80;;;6.50;99.90;;;;;;5051184;28;20116;-56
2021/11/18 08:41:11;;;;;;;18.27;7.82;;;6.50;99.90;;;;;;5050687;28;20037;-58
2021/11/18 08:43:41;;;;;;;18.77;7.60;;;6.50;99.90;;;;;;5051093;28;20149;-57
2021/11/18 08:46:09;;;;;;;26.05;9.68;;;6.50;99.90;;;;;;5044040;28;20083;-59
2021/11/18 08:48:35;;;;;;;18.70;7.20;;;6.60;99.90;;;;;;5044244;28;20040;-57
2021/11/18 08:51:04;;;;;;;19.08;7.75;;;6.60;99.90;;;;;;5048434;28;20036;-56
2021/11/18 08:53:33;;;;;;;17.90;8.25;;;6.70;99.90;;;;;;5044645;28;20462;-56
2021/11/18 08:55:59;;;;;;;15.30;6.53;;;6.80;99.90;;;;;;5045756;28;20033;-56
2021/11/18 08:58:28;;;;;;;26.77;8.10;;;6.80;99.90;;;;;;5042022;28;20550;-58
2021/11/18 09:00:59;;;;;;;17.15;7.68;;;6.90;99.90;;;;;;5044449;28;20547;-57
2021/11/18 09:03:27;;;;;;;18.58;8.35;;;7.00;99.90;;;;;;5039385;28;20018;-55
2021/11/18 09:05:53;;;;;;;20.02;7.13;;;7.10;99.90;;;;;;5050267;28;20024;-55
2021/11/18 09:08:20;;;;;;;24.00;7.75;;;7.20;99.90;;;;;;5050393;28;20021;-56
2021/11/18 09:10:46;;;;;;;21.00;8.02;;;7.30;99.90;;;;;;5031843;28;20028;-57
2021/11/18 09:13:13;;;;;;;22.58;7.60;;;7.40;99.90;;;;;;5050275;28;20057;-56
2021/11/18 09:15:39;;;;;;;21.20;8.10;;;7.50;99.90;;;;;;5046965;28;20056;-59
2021/11/18 09:18:06;;;;;;;14.52;6.05;;;7.60;99.90;;;;;;5050487;28;20113;-58
2021/11/18 09:20:32;;;;;;;16.17;7.85;;;7.60;99.90;;;;;;5047991;28;20043;-55
2021/11/18 09:22:59;;;;;;;15.80;6.13;;;7.60;99.90;;;;;;5050266;28;20103;-58
2021/11/18 09:25:28;;;;;;;17.42;7.05;;;7.60;99.90;;;;;;5049589;28;20029;-59
2021/11/18 09:27:55;;;;;;;19.73;6.97;;;7.80;99.90;;;;;;5050653;28;20430;-56
2021/11/18 09:30:37;;;;;;;27.73;7.53;;;8.00;99.90;;;;;;5048578;28;20048;-59
2021/11/18 09:33:06;;;;;;;15.05;5.75;;;8.10;99.90;;;;;;5040322;28;20028;-57
2021/11/18 09:35:35;;;;;;;16.45;6.13;;;8.20;99.90;;;;;;5047016;28;20386;-58
2021/11/18 09:38:02;;;;;;;21.65;6.47;;;8.30;99.90;;;;;;5050215;28;20074;-53
2021/11/18 09:40:48;;;;;;;17.52;7.10;;;8.40;99.90;;;;;;5049546;28;20482;-56
2021/11/18 09:43:34;;;;;;;19.95;6.57;;;8.50;99.90;;;;;;5046054;28;20036;-57
2021/11/18 09:46:00;;;;;;;17.98;7.93;;;8.40;99.90;;;;;;5048632;28;20033;-57
2021/11/18 09:48:36;;;;;;;24.52;8.40;;;8.30;99.90;;;;;;5046813;28;20097;-58
2021/11/18 09:51:41;;;;;;;17.98;7.75;;;8.20;99.90;;;;;;5045033;28;20030;-57
2021/11/18 09:54:20;;;;;;;;;;;8.10;99.90;;;;;;5045294;28;20028;-58
2021/11/18 09:57:16;;;;;;;15.30;6.45;;;8.00;99.90;;;;;;5043290;28;19908;-59
2021/11/18 10:00:20;;;;;;;16.30;6.80;;;7.90;99.90;;;;;;5047953;28;20032;-60
2021/11/18 10:02:49;;;;;;;17.70;7.63;;;8.00;99.90;;;;;;5046353;28;20028;-56
2021/11/18 10:05:21;;;;;;;14.77;6.28;;;8.00;99.90;;;;;;5043782;28;20147;-58
2021/11/18 10:08:00;;;;;;;11.70;6.05;;;8.10;99.90;;;;;;5045181;28;20042;-60
2021/11/18 10:10:37;;;;;;;12.40;5.93;;;8.30;99.90;;;;;;5046834;28;20554;-58
2021/11/18 10:13:12;;;;;;;20.38;6.53;;;8.40;99.90;;;;;;5030202;28;20175;-56
2021/11/18 10:15:54;;;;;;;16.92;6.53;;;8.60;99.90;;;;;;5046978;28;20034;-58
2021/11/18 10:18:37;;;;;;;18.23;7.90;;;8.70;99.90;;;;;;5049372;28;21326;-59
2021/11/18 10:21:11;;;;;;;30.67;11.25;;;8.80;99.90;;;;;;5047745;28;20029;-58
2021/11/18 10:23:38;;;;;;;12.07;6.57;;;8.80;99.90;;;;;;5043579;28;20166;-59
2021/11/18 10:26:09;;;;;;;20.20;8.85;;;8.90;99.90;;;;;;5048826;28;20025;-57
2021/11/18 10:29:04;;;;;;;23.67;8.15;;;8.90;99.90;;;;;;5046859;28;20033;-56
2021/11/18 10:32:09;;;;;;;27.52;10.93;;;9.00;99.90;;;;;;5047300;28;20469;-58
2021/11/18 10:34:52;;;;;;;50.92;20.95;;;9.20;99.90;;;;;;5047557;28;20569;-58
2021/11/18 10:37:39;;;;;;;31.88;12.77;;;9.10;99.90;;;;;;5048556;28;20040;-57
2021/11/18 10:40:19;;;;;;;29.73;12.02;;;9.10;99.90;;;;;;5044816;28;20104;-58
2021/11/18 10:42:49;;;;;;;33.75;12.13;;;9.20;99.90;;;;;;5046224;28;20024;-57
2021/11/18 10:45:27;;;;;;;22.65;10.88;;;9.20;99.90;;;;;;5048511;28;20032;-59
2021/11/18 10:48:02;;;;;;;22.60;8.25;;;9.30;99.90;;;;;;5046217;28;20044;-57
2021/11/18 10:50:49;;;;;;;20.13;9.20;;;9.30;99.90;;;;;;5014427;28;20033;-59
2021/11/18 10:53:22;;;;;;;29.42;10.82;;;9.30;99.90;;;;;;5044362;28;20585;-58
2021/11/18 10:56:03;;;;;;;28.92;12.25;;;9.40;99.90;;;;;;5038648;28;20424;-60
2021/11/18 10:58:30;;;;;;;21.00;7.68;;;9.50;99.90;;;;;;5040680;28;20021;-58
2021/11/18 11:01:05;;;;;;;41.95;18.45;;;9.60;99.90;;;;;;5048592;28;20113;-60
2021/11/18 11:03:34;;;;;;;16.60;7.22;;;9.70;99.90;;;;;;5048244;28;20021;-59
2021/11/18 11:06:08;;;;;;;19.42;8.25;;;9.80;99.90;;;;;;5046718;28;20025;-60
2021/11/18 11:08:35;;;;;;;20.20;8.13;;;9.80;99.90;;;;;;5047390;28;20025;-60
2021/11/18 11:11:09;;;;;;;21.35;9.75;;;9.90;99.90;;;;;;5046218;28;20032;-59
2021/11/18 11:13:56;;;;;;;25.10;9.02;;;10.00;99.90;;;;;;5025770;28;20033;-59
2021/11/18 11:16:37;;;;;;;27.08;7.60;;;9.90;99.90;;;;;;5049572;28;20029;-58
2021/11/18 11:19:13;;;;;;;19.90;10.35;;;9.90;99.90;;;;;;5049262;28;20037;-59
2021/11/18 11:22:00;;;;;;;22.30;9.85;;;10.00;99.90;;;;;;5031360;28;20032;-59
2021/11/18 11:24:41;;;;;;;28.80;11.18;;;10.20;99.90;;;;;;5050663;28;20439;-59
2021/11/18 11:27:25;;;;;;;36.55;14.40;;;10.20;99.90;;;;;;5044553;28;20053;-59
2021/11/18 11:29:57;;;;;;;23.80;10.50;;;10.20;99.90;;;;;;5050584;28;20058;-59
2021/11/18 11:32:45;;;;;;;25.83;8.25;;;10.20;99.90;;;;;;5051182;28;20036;-57
2021/11/18 11:35:24;;;;;;;32.15;11.77;;;10.20;99.90;;;;;;5050904;28;20436;-58
2021/11/18 11:38:10;;;;;;;25.67;6.72;;;10.30;99.90;;;;;;5051657;28;20021;-60
2021/11/18 11:41:05;;;;;;;23.75;7.95;;;10.10;99.90;;;;;;5049488;28;20131;-59
2021/11/18 11:43:58;;;;;;;22.27;7.43;;;10.20;99.90;;;;;;5042182;28;20079;-56
2021/11/18 11:46:43;;;;;;;18.85;5.82;;;10.20;99.90;;;;;;5051179;28;20033;-54
2021/11/18 11:49:26;;;;;;;24.30;9.55;;;10.20;99.90;;;;;;5053085;28;20401;-60
2021/11/18 11:52:10;;;;;;;19.52;8.32;;;10.20;99.90;;;;;;5057182;28;20029;-58
2021/11/18 11:54:55;;;;;;;34.83;13.85;;;10.20;99.90;;;;;;5053342;28;20028;-57
2021/11/18 11:57:38;;;;;;;26.30;9.10;;;10.20;99.90;;;;;;5052642;28;20044;-58
2021/11/18 12:00:21;;;;;;;21.83;8.63;;;10.20;99.90;;;;;;5047431;28;20025;-57
2021/11/18 12:02:56;;;;;;;25.33;8.88;;;10.20;99.90;;;;;;5051100;28;20029;-58
2021/11/18 12:05:37;;;;;;;34.70;15.80;;;10.40;99.90;;;;;;5051256;28;20530;-57
2021/11/18 12:08:11;;;;;;;32.53;12.88;;;10.40;99.90;;;;;;5048342;28;20120;-55
2021/11/18 12:10:58;;;;;;;31.98;13.43;;;10.50;99.90;;;;;;5051559;28;20512;-56
2021/11/18 12:13:27;;;;;;;25.15;8.32;;;10.60;99.90;;;;;;5051237;28;20036;-58
2021/11/18 12:16:10;;;;;;;22.40;8.27;;;10.60;99.90;;;;;;5052077;28;20431;-56
2021/11/18 12:18:49;;;;;;;20.52;5.55;;;10.60;99.90;;;;;;5046401;28;20034;-58
2021/11/18 12:21:17;;;;;;;32.05;11.98;;;10.60;99.90;;;;;;5051274;28;20888;-58
2021/11/18 12:23:59;;;;;;;32.00;10.65;;;10.50;99.90;;;;;;5050869;28;20025;-57
2021/11/18 12:26:27;;;;;;;29.55;8.35;;;10.50;99.90;;;;;;5051732;28;20021;-57
2021/11/18 12:29:21;;;;;;;20.33;5.53;;;10.50;99.90;;;;;;5051485;28;20498;-60
2021/11/18 12:32:12;;;;;;;36.10;7.47;;;10.40;99.90;;;;;;5051953;28;20044;-58
2021/11/18 12:34:50;;;;;;;28.67;6.32;;;10.50;99.90;;;;;;5054453;28;20562;-56
2021/11/18 12:37:24;;;;;;;31.88;5.78;;;10.50;99.90;;;;;;5053462;28;20033;-57
2021/11/18 12:40:12;;;;;;;29.17;7.85;;;10.50;99.90;;;;;;5035351;28;20060;-58
2021/11/18 12:43:23;;;;;;;20.75;5.57;;;10.50;99.90;;;;;;5046290;28;20077;-56
2021/11/18 12:46:15;;;;;;;25.73;5.95;;;10.50;99.90;;;;;;5050307;28;20056;-58
2021/11/18 12:49:06;;;;;;;26.38;5.85;;;10.60;99.90;;;;;;5046608;28;20040;-57
2021/11/18 12:51:44;;;;;;;28.70;6.88;;;10.50;99.90;;;;;;5050418;28;20033;-56
2021/11/18 12:54:09;;;;;;;22.35;5.72;;;10.50;99.90;;;;;;5047224;28;20559;-56